Time;durP1;ratioP1;P1;durP2;ratioP2;P2;SDS_P1;SDS_P2;PMS_P1;PMS_P2;Temp;Humidity;BMP_temperature;BMP_pressure;BME280_temperature;BME280_humidity;BME280_pressure;Samples;Min_cycle;Max_cycle;Signal;HPM_P1;HPM_P2
2023/05/20 00:01:42;;;;;;;15.30;10.80;;;;;;;14.01;100.00;101510.52;109744;1241;71103;-74
2023/05/20 00:04:11;;;;;;;18.00;11.40;;;;;;;13.88;100.00;101513.07;109689;1244;63420;-74
2023/05/20 00:06:40;;;;;;;17.60;11.80;;;;;;;13.79;100.00;101511.85;109711;1244;57546;-73
2023/05/20 00:09:09;;;;;;;17.90;12.00;;;;;;;13.82;100.00;101511.13;109721;1241;61175;-74
2023/05/20 00:11:38;;;;;;;22.10;11.10;;;;;;;13.84;100.00;101514.42;109659;1241;62673;-74
2023/05/20 00:14:07;;;;;;;16.70;12.40;;;;;;;13.84;100.00;101514.14;109517;1246;61669;-74
2023/05/20 00:16:36;;;;;;;18.80;12.70;;;;;;;13.79;100.00;101514.84;109775;1241;59231;-74
2023/05/20 00:19:05;;;;;;;17.50;12.30;;;;;;;13.77;100.00;101511.80;109659;1244;62382;-74
2023/05/20 00:21:34;;;;;;;16.70;11.40;;;;;;;13.78;100.00;101516.08;109624;1242;62085;-74
2023/05/20 00:24:03;;;;;;;18.60;12.90;;;;;;;13.76;100.00;101513.61;109742;1241;60666;-75
2023/05/20 00:26:32;;;;;;;19.00;12.90;;;;;;;13.76;100.00;101510.79;109711;1244;74012;-75
2023/05/20 00:29:01;;;;;;;17.50;12.00;;;;;;;13.73;100.00;101506.82;109518;1241;72542;-75
2023/05/20 00:31:29;;;;;;;17.20;11.10;;;;;;;13.73;100.00;101505.60;109713;1241;71247;-74
2023/05/20 00:33:58;;;;;;;17.60;12.30;;;;;;;13.70;100.00;101505.70;109674;1241;65022;-75
2023/05/20 00:36:27;;;;;;;21.10;12.90;;;;;;;13.63;100.00;101503.90;109641;1244;57671;-75
2023/05/20 00:38:56;;;;;;;14.50;12.10;;;;;;;13.57;100.00;101504.18;109664;1241;59482;-75
2023/05/20 00:41:25;;;;;;;18.10;12.80;;;;;;;13.56;100.00;101503.23;109621;1241;73035;-75
2023/05/20 00:43:54;;;;;;;17.80;12.60;;;;;;;13.53;100.00;101506.75;109746;1241;72532;-75
2023/05/20 00:46:25;;;;;;;19.20;12.60;;;;;;;13.52;100.00;101505.92;109547;1241;71978;-75
2023/05/20 00:48:54;;;;;;;16.50;12.30;;;;;;;13.50;100.00;101506.93;109497;1242;63147;-75
2023/05/20 00:51:23;;;;;;;18.80;12.80;;;;;;;13.47;100.00;101504.71;109701;1245;57628;-75
2023/05/20 00:53:53;;;;;;;18.80;12.40;;;;;;;13.40;100.00;101505.89;109659;1241;59516;-75
2023/05/20 00:56:22;;;;;;;19.70;12.20;;;;;;;13.38;100.00;101504.33;109679;1241;72733;-74
2023/05/20 00:58:51;;;;;;;18.30;12.40;;;;;;;13.33;100.00;101506.25;109705;1241;72221;-75
2023/05/20 01:01:20;;;;;;;18.90;13.00;;;;;;;13.28;100.00;101505.54;109830;1241;71127;-75
2023/05/20 01:03:51;;;;;;;16.70;12.00;;;;;;;13.28;100.00;101502.57;109791;1241;63433;-74
2023/05/20 01:06:19;;;;;;;16.30;11.80;;;;;;;13.25;100.00;101502.79;109386;1241;57719;-74
2023/05/20 01:08:48;;;;;;;18.50;12.50;;;;;;;13.24;100.00;101499.21;109627;1241;57741;-74
2023/05/20 01:11:37;;;;;;;18.70;12.20;;;;;;;13.27;100.00;101497.93;109576;1241;62482;-74
2023/05/20 01:14:07;;;;;;;20.10;12.30;;;;;;;13.29;100.00;101496.78;109715;1241;71389;-74
2023/05/20 01:16:38;;;;;;;17.50;11.80;;;;;;;13.29;100.00;101496.73;109444;1241;60123;-74
2023/05/20 01:19:36;;;;;;;16.80;11.80;;;;;;;13.28;100.00;101497.69;109600;1244;73045;-74
2023/05/20 01:22:11;;;;;;;18.70;12.40;;;;;;;13.25;100.00;101502.40;109415;1246;57179;-74
2023/05/20 01:24:47;;;;;;;19.80;12.30;;;;;;;13.25;100.00;101505.44;109442;1245;61245;-74
2023/05/20 01:27:15;;;;;;;17.80;13.00;;;;;;;13.24;100.00;101505.09;109331;1241;72955;-74
2023/05/20 01:29:47;;;;;;;17.20;12.20;;;;;;;13.23;100.00;101506.26;109487;1241;62589;-74
2023/05/20 01:32:31;;;;;;;17.10;12.80;;;;;;;13.24;100.00;101506.70;109422;1241;69876;-74
2023/05/20 01:35:01;;;;;;;17.50;12.30;;;;;;;13.26;100.00;101505.33;109460;1241;63774;-74
2023/05/20 01:37:31;;;;;;;16.20;12.00;;;;;;;13.26;100.00;101503.77;109426;1244;57162;-74
2023/05/20 01:40:02;;;;;;;17.10;13.20;;;;;;;13.25;100.00;101505.53;109458;1241;57989;-74
2023/05/20 01:42:32;;;;;;;18.80;11.60;;;;;;;13.25;100.00;101501.16;109452;1242;73484;-73
2023/05/20 01:45:02;;;;;;;17.30;12.70;;;;;;;13.27;100.00;101503.36;109267;1241;72469;-73
2023/05/20 01:47:30;;;;;;;16.80;12.30;;;;;;;13.27;100.00;101500.58;109555;1241;70278;-74
2023/05/20 01:49:59;;;;;;;21.00;12.50;;;;;;;13.27;100.00;101503.33;109361;1241;73112;-73
2023/05/20 01:52:28;;;;;;;16.90;12.30;;;;;;;13.28;100.00;101504.00;109671;1244;57169;-74
2023/05/20 01:54:57;;;;;;;16.30;11.70;;;;;;;13.29;100.00;101504.97;109497;1241;57343;-73
2023/05/20 01:57:26;;;;;;;15.70;11.40;;;;;;;13.31;100.00;101502.06;109641;1241;62923;-73
2023/05/20 01:59:55;;;;;;;15.90;11.40;;;;;;;13.33;100.00;101504.52;109595;1244;60951;-73
2023/05/20 02:02:24;;;;;;;18.90;12.30;;;;;;;13.33;100.00;101506.59;109548;1241;70469;-73
2023/05/20 02:04:53;;;;;;;16.50;11.70;;;;;;;13.37;100.00;101506.66;109484;1241;63674;-73
2023/05/20 02:07:22;;;;;;;17.00;12.30;;;;;;;13.41;100.00;101506.90;109383;1244;61492;-74
2023/05/20 02:09:52;;;;;;;16.20;11.50;;;;;;;13.41;100.00;101507.11;109693;1241;57247;-74
2023/05/20 02:12:21;;;;;;;16.60;11.70;;;;;;;13.48;100.00;101503.43;109698;1241;73143;-73
2023/05/20 02:14:50;;;;;;;20.70;13.50;;;;;;;13.47;100.00;101506.41;109721;1241;61485;-73
2023/05/20 02:17:19;;;;;;;14.80;12.00;;;;;;;13.47;100.00;101504.72;109601;1241;59893;-72
2023/05/20 02:19:48;;;;;;;15.80;11.40;;;;;;;13.47;100.00;101504.00;109602;1241;63096;-73
2023/05/20 02:22:17;;;;;;;14.50;11.20;;;;;;;13.47;100.00;101504.03;109455;1245;57466;-72
2023/05/20 02:24:46;;;;;;;15.70;11.50;;;;;;;13.47;100.00;101505.22;109457;1244;57725;-71
2023/05/20 02:27:16;;;;;;;15.70;11.90;;;;;;;13.49;100.00;101506.98;109549;1241;73507;-72
2023/05/20 02:29:45;;;;;;;21.10;12.70;;;;;;;13.51;100.00;101508.80;109533;1241;72560;-72
2023/05/20 02:32:14;;;;;;;14.50;9.60;;;;;;;13.58;100.00;101513.75;109454;1241;70678;-72
2023/05/20 02:34:42;;;;;;;17.70;12.20;;;;;;;13.71;100.00;101508.77;109514;1241;73292;-73
2023/05/20 02:37:11;;;;;;;14.90;11.70;;;;;;;13.72;100.00;101510.95;109530;1244;57568;-73
2023/05/20 02:39:40;;;;;;;16.90;12.10;;;;;;;13.77;100.00;101513.73;109696;1241;60172;-73
2023/05/20 02:42:08;;;;;;;17.10;11.20;;;;;;;13.73;100.00;101511.36;109449;1241;72081;-74
2023/05/20 02:44:38;;;;;;;20.00;12.30;;;;;;;13.74;100.00;101510.14;109598;1241;61619;-73
2023/05/20 02:47:07;;;;;;;18.60;12.60;;;;;;;13.70;100.00;101514.08;109597;1241;70459;-73
2023/05/20 02:49:35;;;;;;;21.50;13.10;;;;;;;13.69;100.00;101511.02;109650;1241;74730;-73
2023/05/20 02:52:05;;;;;;;20.70;12.70;;;;;;;13.64;100.00;101514.20;109572;1241;62180;-74
2023/05/20 02:54:34;;;;;;;19.80;13.80;;;;;;;13.70;100.00;101516.02;109678;1241;60345;-73
2023/05/20 02:57:03;;;;;;;16.80;12.10;;;;;;;13.72;100.00;101518.67;109591;1241;74021;-73
2023/05/20 02:59:32;;;;;;;17.20;12.10;;;;;;;13.81;100.00;101521.13;109591;1244;61185;-74
2023/05/20 03:02:02;;;;;;;17.50;13.00;;;;;;;13.83;100.00;101524.34;109628;1241;69655;-74
2023/05/20 03:04:30;;;;;;;20.10;13.30;;;;;;;13.85;100.00;101524.89;109453;1241;73403;-74
2023/05/20 03:06:59;;;;;;;16.40;11.80;;;;;;;13.92;100.00;101527.53;109605;1244;57895;-74
2023/05/20 03:09:29;;;;;;;18.50;12.60;;;;;;;14.01;100.00;101527.33;109609;1241;61175;-74
2023/05/20 03:11:58;;;;;;;19.80;12.00;;;;;;;14.10;100.00;101526.73;109604;1241;63415;-75
2023/05/20 03:14:27;;;;;;;16.70;11.30;;;;;;;14.20;100.00;101527.39;109616;1243;60935;-75
2023/05/20 03:16:56;;;;;;;17.80;12.30;;;;;;;14.30;100.00;101524.00;109575;1241;70378;-74
2023/05/20 03:19:24;;;;;;;16.60;11.90;;;;;;;14.43;100.00;101526.66;109573;1241;74186;-75
2023/05/20 03:21:53;;;;;;;16.50;11.80;;;;;;;14.59;100.00;101524.80;109509;1241;62585;-75
2023/05/20 03:24:22;;;;;;;15.00;12.00;;;;;;;14.67;100.00;101525.56;109500;1244;57475;-75
2023/05/20 03:26:51;;;;;;;12.00;10.40;;;;;;;14.79;100.00;101530.27;109771;1242;62977;-75
2023/05/20 03:29:21;;;;;;;17.70;11.50;;;;;;;14.87;100.00;101533.16;109571;1241;61689;-76
2023/05/20 03:31:50;;;;;;;17.60;12.20;;;;;;;14.92;100.00;101532.04;109732;1242;59200;-75
2023/05/20 03:34:19;;;;;;;20.60;11.60;;;;;;;15.01;100.00;101532.77;109712;1241;63224;-75
2023/05/20 03:36:50;;;;;;;13.50;11.00;;;;;;;15.06;100.00;101532.23;109658;1241;62848;-74
2023/05/20 03:39:19;;;;;;;18.30;12.20;;;;;;;15.14;100.00;101534.59;109490;1241;57230;-74
2023/05/20 03:41:48;;;;;;;15.20;11.20;;;;;;;15.14;100.00;101532.28;109693;1241;62958;-74
2023/05/20 03:44:18;;;;;;;17.40;11.80;;;;;;;15.22;100.00;101530.60;109709;1241;61614;-74
2023/05/20 03:46:47;;;;;;;12.70;10.90;;;;;;;15.28;100.00;101533.45;109607;1244;68461;-72
2023/05/20 03:49:16;;;;;;;14.10;11.50;;;;;;;15.30;100.00;101531.00;109592;1244;62454;-74
2023/05/20 03:51:45;;;;;;;17.20;12.30;;;;;;;15.36;100.00;101537.89;109544;1244;61850;-74
2023/05/20 03:54:15;;;;;;;15.10;10.40;;;;;;;15.33;100.00;101539.56;109462;1241;60521;-73
2023/05/20 03:56:45;;;;;;;13.10;10.80;;;;;;;15.34;100.00;101542.84;109491;1241;62898;-73
2023/05/20 03:59:14;;;;;;;14.70;11.20;;;;;;;15.36;100.00;101540.22;109645;1241;62435;-73
2023/05/20 04:01:43;;;;;;;16.10;11.70;;;;;;;15.43;100.00;101540.02;109557;1244;59187;-73
2023/05/20 04:04:12;;;;;;;15.50;11.20;;;;;;;15.50;100.00;101543.10;109534;1244;62615;-74
2023/05/20 04:06:42;;;;;;;15.40;11.70;;;;;;;15.49;100.00;101540.35;109467;1244;62998;-76
2023/05/20 04:09:11;;;;;;;14.30;11.50;;;;;;;15.57;100.00;101547.11;109575;1241;60127;-74
2023/05/20 04:11:40;;;;;;;14.70;11.00;;;;;;;15.58;100.00;101547.73;109604;1241;74069;-78
2023/05/20 04:14:09;;;;;;;16.50;11.70;;;;;;;15.62;100.00;101548.85;109442;1241;72509;-77
2023/05/20 04:16:38;;;;;;;20.50;12.00;;;;;;;15.65;100.00;101551.93;109470;1244;60479;-77
2023/05/20 04:19:07;;;;;;;14.80;11.20;;;;;;;15.74;100.00;101548.28;109428;1244;63254;-77
2023/05/20 04:21:37;;;;;;;18.80;12.20;;;;;;;15.81;100.00;101548.36;109343;1247;57238;-76
2023/05/20 04:24:06;;;;;;;15.00;12.10;;;;;;;15.79;100.00;101554.98;109479;1241;61230;-76
2023/05/20 04:26:34;;;;;;;15.80;11.70;;;;;;;15.79;100.00;101552.98;109606;1241;74004;-76
2023/05/20 04:29:03;;;;;;;18.80;12.00;;;;;;;15.92;100.00;101552.09;109688;1241;62404;-77
2023/05/20 04:31:33;;;;;;;15.70;11.30;;;;;;;15.97;100.00;101553.38;109634;1241;70488;-77
2023/05/20 04:34:02;;;;;;;15.40;11.40;;;;;;;16.12;100.00;101551.77;109721;1242;74086;-77
2023/05/20 04:36:31;;;;;;;13.10;10.40;;;;;;;16.21;100.00;101549.69;109661;1242;61545;-77
2023/05/20 04:39:00;;;;;;;16.60;12.10;;;;;;;16.29;100.00;101550.20;109628;1245;57773;-76
2023/05/20 04:41:30;;;;;;;14.10;11.30;;;;;;;16.29;100.00;101549.56;109569;1241;72775;-77
2023/05/20 04:44:00;;;;;;;13.50;11.60;;;;;;;16.31;100.00;101545.49;109707;1241;62126;-78
2023/05/20 04:46:30;;;;;;;16.10;10.20;;;;;;;16.43;100.00;101550.66;109763;1241;69087;-78
2023/05/20 04:48:59;;;;;;;14.50;11.80;;;;;;;16.46;100.00;101550.70;109650;1244;63573;-78
2023/05/20 04:51:29;;;;;;;15.60;11.40;;;;;;;16.47;100.00;101553.48;109752;1242;62290;-78
2023/05/20 04:53:58;;;;;;;17.60;12.00;;;;;;;16.57;100.00;101551.39;109728;1241;57203;-78
2023/05/20 04:56:28;;;;;;;12.80;11.20;;;;;;;16.65;100.00;101555.11;109664;1241;72556;-78
2023/05/20 04:58:58;;;;;;;14.20;11.50;;;;;;;16.68;100.00;101548.14;109784;1241;62199;-77
2023/05/20 05:01:26;;;;;;;14.00;11.70;;;;;;;16.77;100.00;101549.90;109640;1241;69621;-77
2023/05/20 05:03:55;;;;;;;17.30;12.20;;;;;;;16.71;100.00;101553.95;109607;1241;64439;-78
2023/05/20 05:06:24;;;;;;;16.40;11.60;;;;;;;16.79;100.00;101553.21;109651;1244;62470;-77
2023/05/20 05:08:53;;;;;;;13.30;11.20;;;;;;;16.97;100.00;101554.31;109592;1245;57714;-77
2023/05/20 05:11:22;;;;;;;13.30;11.90;;;;;;;17.01;100.00;101554.90;109628;1244;62842;-79
2023/05/20 05:13:52;;;;;;;18.00;12.20;;;;;;;17.04;100.00;101555.52;109543;1241;72275;-78
2023/05/20 05:16:22;;;;;;;16.10;11.90;;;;;;;17.06;100.00;101557.05;109538;1245;60351;-78
2023/05/20 05:18:51;;;;;;;19.20;11.60;;;;;;;17.11;100.00;101557.70;109540;1245;63540;-78
2023/05/20 05:21:21;;;;;;;15.70;12.20;;;;;;;17.14;100.00;101560.73;109513;1241;62207;-78
2023/05/20 05:23:49;;;;;;;18.30;12.60;;;;;;;17.17;100.00;101557.01;109720;1242;61773;-75
2023/05/20 05:26:18;;;;;;;16.60;12.80;;;;;;;17.11;100.00;101553.77;109765;1244;62969;-77
2023/05/20 05:28:48;;;;;;;17.80;12.90;;;;;;;17.10;100.00;101551.45;109734;1241;72454;-73
2023/05/20 05:31:17;;;;;;;13.30;11.90;;;;;;;17.11;100.00;101547.45;109696;1241;69847;-70
2023/05/20 05:33:46;;;;;;;15.90;12.40;;;;;;;17.05;100.00;101549.77;109547;1241;74112;-72
2023/05/20 05:36:16;;;;;;;15.40;12.20;;;;;;;17.03;100.00;101543.80;109438;1246;61628;-72
2023/05/20 05:38:45;;;;;;;17.90;13.70;;;;;;;17.04;100.00;101544.06;109654;1241;57479;-72
2023/05/20 05:41:14;;;;;;;15.40;12.90;;;;;;;17.10;100.00;101546.17;109607;1243;61988;-69
2023/05/20 05:43:43;;;;;;;15.40;12.70;;;;;;;17.29;100.00;101547.54;109388;1241;72184;-74
2023/05/20 05:46:13;;;;;;;19.10;12.70;;;;;;;17.25;100.00;101552.64;109523;1241;70780;-74
2023/05/20 05:48:44;;;;;;;16.10;11.50;;;;;;;17.39;100.00;101553.67;109605;1243;74416;-74
2023/05/20 05:51:12;;;;;;;15.00;11.00;;;;;;;17.50;100.00;101557.45;109634;1244;63209;-77
2023/05/20 05:53:41;;;;;;;16.50;12.90;;;;;;;17.52;100.00;101559.75;109480;1245;59970;-73
2023/05/20 05:56:10;;;;;;;14.40;12.30;;;;;;;17.56;100.00;101559.00;109704;1242;63735;-72
2023/05/20 05:58:40;;;;;;;18.60;13.40;;;;;;;17.55;100.00;101562.83;109708;1241;60719;-73
2023/05/20 06:01:09;;;;;;;16.00;12.50;;;;;;;17.61;100.00;101557.21;109685;1244;59210;-74
2023/05/20 06:03:38;;;;;;;14.40;11.80;;;;;;;17.52;100.00;101558.20;109639;1242;73785;-74
2023/05/20 06:06:07;;;;;;;14.60;12.60;;;;;;;17.60;100.00;101560.11;109446;1247;57257;-74
2023/05/20 06:08:36;;;;;;;14.80;11.80;;;;;;;17.44;100.00;101556.73;109707;1242;57404;-72
2023/05/20 06:11:06;;;;;;;13.80;12.30;;;;;;;17.68;100.00;101555.38;109768;1241;62889;-74
2023/05/20 06:13:35;;;;;;;14.20;12.10;;;;;;;17.80;100.00;101553.41;109726;1241;71729;-75
2023/05/20 06:16:04;;;;;;;14.40;11.60;;;;;;;17.81;100.00;101559.50;109511;1241;60919;-73
2023/05/20 06:18:33;;;;;;;22.40;12.20;;;;;;;17.94;100.00;101559.21;109640;1243;62495;-75
2023/05/20 06:21:05;;;;;;;19.50;12.30;;;;;;;18.02;100.00;101556.41;109646;1244;62878;-75
2023/05/20 06:23:33;;;;;;;13.90;12.50;;;;;;;18.05;100.00;101549.23;109649;1244;62068;-72
2023/05/20 06:26:05;;;;;;;16.80;12.00;;;;;;;18.17;100.00;101552.20;109652;1241;63955;-74
2023/05/20 06:28:34;;;;;;;19.00;12.70;;;;;;;18.19;100.00;101549.66;109671;1241;61668;-74
2023/05/20 06:31:03;;;;;;;14.80;11.90;;;;;;;18.19;100.00;101551.42;109637;1241;70577;-80
2023/05/20 06:33:34;;;;;;;15.60;11.80;;;;;;;18.36;100.00;101553.95;109626;1245;74153;-74
2023/05/20 06:36:09;;;;;;;19.20;13.00;;;;;;;18.27;100.00;101558.13;109526;1244;62635;-74
2023/05/20 06:38:38;;;;;;;13.90;11.80;;;;;;;18.21;100.00;101563.83;109491;1241;61393;-74
2023/05/20 06:41:07;;;;;;;15.50;12.10;;;;;;;18.27;100.00;101563.44;109508;1241;74192;-73
2023/05/20 06:43:37;;;;;;;18.20;12.30;;;;;;;18.37;100.00;101565.86;109459;1241;72728;-74
2023/05/20 06:46:10;;;;;;;15.60;11.70;;;;;;;18.48;100.00;101568.21;109516;1241;70107;-76
2023/05/20 06:48:45;;;;;;;16.00;12.10;;;;;;;18.62;100.00;101566.86;109356;1244;269998;-71
2023/05/20 06:51:14;;;;;;;15.50;12.00;;;;;;;18.75;100.00;101570.28;109638;1243;63412;-73
2023/05/20 06:53:46;;;;;;;16.70;12.90;;;;;;;18.75;100.00;101568.20;109694;1244;57701;-74
2023/05/20 06:56:15;;;;;;;16.30;12.70;;;;;;;18.84;100.00;101570.57;109580;1241;62984;-76
2023/05/20 06:58:44;;;;;;;16.50;12.60;;;;;;;18.91;100.00;101571.46;109593;1241;62478;-80
2023/05/20 07:01:13;;;;;;;18.60;12.70;;;;;;;18.96;100.00;101571.65;109797;1241;60053;-73
2023/05/20 07:03:46;;;;;;;13.40;12.00;;;;;;;18.70;100.00;101575.35;109465;1241;62532;-73
2023/05/20 07:06:15;;;;;;;12.70;11.40;;;;;;;18.73;100.00;101575.20;109542;1245;57664;-72
2023/05/20 07:08:44;;;;;;;17.30;12.40;;;;;;;18.76;100.00;101573.92;109596;1241;58108;-75
2023/05/20 07:11:13;;;;;;;13.90;11.90;;;;;;;18.74;100.00;101578.13;109673;1241;62941;-73
2023/05/20 07:13:42;;;;;;;17.30;13.10;;;;;;;18.59;100.00;101577.61;109712;1241;60782;-73
2023/05/20 07:16:11;;;;;;;15.30;11.60;;;;;;;18.60;100.00;101575.94;109718;1241;59267;-73
2023/05/20 07:18:43;;;;;;;;;;;;;;;18.68;100.00;101572.89;109567;1241;72014;-74
2023/05/20 07:21:12;;;;;;;15.10;12.20;;;;;;;18.65;100.00;101573.29;109727;1244;62244;-73
2023/05/20 07:23:52;;;;;;;17.60;12.50;;;;;;;18.75;100.00;101573.98;109628;1241;61290;-73
2023/05/20 07:26:21;;;;;;;14.90;12.50;;;;;;;18.73;100.00;101571.31;109411;1241;74042;-74
2023/05/20 07:28:50;;;;;;;16.40;12.00;;;;;;;18.85;100.00;101569.73;109486;1241;73643;-74
2023/05/20 07:31:19;;;;;;;13.00;11.10;;;;;;;18.80;100.00;101575.80;109429;1241;60537;-74
2023/05/20 07:33:49;;;;;;;25.90;13.70;;;;;;;18.78;100.00;101576.88;109441;1242;73078;-73
2023/05/20 07:36:18;;;;;;;15.00;12.80;;;;;;;18.86;100.00;101573.35;109407;1244;61438;-74
2023/05/20 07:38:50;;;;;;;17.60;12.90;;;;;;;18.89;100.00;101573.80;109255;1247;57802;-73
2023/05/20 07:41:34;;;;;;;14.70;12.40;;;;;;;18.95;100.00;101579.34;109403;1241;62195;-83
2023/05/20 07:44:11;;;;;;;16.10;12.00;;;;;;;19.15;100.00;101577.17;109360;1241;61631;-73
2023/05/20 07:46:43;;;;;;;16.70;12.80;;;;;;;19.31;100.00;101574.71;109403;1241;69758;-73
2023/05/20 07:49:12;;;;;;;13.30;11.90;;;;;;;19.53;100.00;101565.34;109552;1241;73501;-73
2023/05/20 07:51:41;;;;;;;14.50;12.00;;;;;;;19.75;100.00;101565.37;109553;1241;57410;-73
2023/05/20 07:54:11;;;;;;;15.40;11.80;;;;;;;19.99;100.00;101566.64;109697;1241;57658;-72
2023/05/20 07:56:40;;;;;;;15.30;11.80;;;;;;;20.11;100.00;101563.17;109497;1241;63087;-72
2023/05/20 07:59:10;;;;;;;16.00;12.70;;;;;;;19.94;100.00;101568.96;109755;1241;71111;-73
2023/05/20 08:01:43;;;;;;;15.70;12.60;;;;;;;20.19;100.00;101569.66;109616;1241;59077;-74
2023/05/20 08:04:12;;;;;;;15.40;12.30;;;;;;;20.29;100.00;101568.59;109702;1241;73246;-71
2023/05/20 08:06:43;;;;;;;16.20;12.60;;;;;;;20.08;100.00;101574.33;109697;1242;57682;-72
2023/05/20 08:09:16;;;;;;;16.40;12.30;;;;;;;20.31;99.97;101566.31;109741;1242;60202;-72
2023/05/20 08:11:48;;;;;;;16.20;11.50;;;;;;;20.19;99.88;101567.54;109587;1241;63426;-71
2023/05/20 08:14:18;;;;;;;16.80;12.00;;;;;;;19.98;99.88;101567.51;109599;1243;71447;-71
2023/05/20 08:16:49;;;;;;;17.10;12.30;;;;;;;20.02;100.00;101565.30;109703;1241;70946;-71
2023/05/20 08:19:22;;;;;;;16.20;12.70;;;;;;;20.07;100.00;101574.57;109669;1242;74284;-72
2023/05/20 08:21:51;;;;;;;15.60;11.80;;;;;;;20.28;100.00;101578.33;109658;1244;63238;-73
2023/05/20 08:24:20;;;;;;;16.80;11.90;;;;;;;20.53;99.37;101578.82;109742;1241;61577;-72
2023/05/20 08:26:48;;;;;;;18.20;11.90;;;;;;;20.70;98.13;101569.41;109744;1241;73868;-72
2023/05/20 08:29:17;;;;;;;15.30;12.50;;;;;;;20.71;98.40;101567.61;109724;1241;72422;-72
2023/05/20 08:31:46;;;;;;;15.70;11.90;;;;;;;20.61;97.55;101573.09;109600;1241;61447;-72
2023/05/20 08:34:19;;;;;;;15.70;11.60;;;;;;;20.89;96.20;101569.33;109551;1241;73806;-72
2023/05/20 08:36:48;;;;;;;13.30;11.80;;;;;;;20.97;95.72;101568.85;109547;1244;57265;-72
2023/05/20 08:39:17;;;;;;;14.90;11.30;;;;;;;21.07;95.26;101569.92;109631;1241;61353;-72
2023/05/20 08:41:50;;;;;;;14.20;11.50;;;;;;;21.29;94.30;101569.55;109705;1241;74073;-72
2023/05/20 08:44:21;;;;;;;12.90;11.60;;;;;;;21.08;93.90;101564.85;109666;1241;71698;-72
2023/05/20 08:46:54;;;;;;;17.90;12.20;;;;;;;21.23;93.33;101562.64;109655;1241;70804;-72
2023/05/20 08:49:23;;;;;;;13.50;11.80;;;;;;;21.25;93.36;101566.66;109627;1241;62992;-72
2023/05/20 08:51:52;;;;;;;14.60;11.80;;;;;;;21.22;92.89;101563.63;109679;1244;57607;-72
2023/05/20 08:54:25;;;;;;;14.50;12.00;;;;;;;21.32;92.09;101556.34;109684;1241;57272;-71
2023/05/20 08:56:54;;;;;;;;;;;;;;;21.42;91.56;101563.52;109679;1241;62200;-72
2023/05/20 08:59:23;;;;;;;14.90;11.90;;;;;;;21.42;91.79;101563.14;109479;1241;60953;-72
2023/05/20 09:01:52;;;;;;;14.40;11.90;;;;;;;21.36;91.38;101558.77;109682;1241;62117;-71
2023/05/20 09:04:21;;;;;;;20.80;11.80;;;;;;;21.20;91.67;101563.23;109780;1241;73799;-72
2023/05/20 09:06:51;;;;;;;14.90;11.70;;;;;;;21.21;92.08;101557.84;109769;1241;60787;-72
2023/05/20 09:09:20;;;;;;;17.40;11.80;;;;;;;21.21;91.64;101557.84;109847;1241;57134;-71
2023/05/20 09:11:49;;;;;;;16.80;11.70;;;;;;;21.12;92.40;101553.48;109812;1241;72728;-74
2023/05/20 09:14:17;;;;;;;17.40;11.70;;;;;;;21.23;92.90;101553.96;109686;1241;71849;-73
2023/05/20 09:16:50;;;;;;;13.40;11.70;;;;;;;21.47;91.39;101552.13;109802;1241;60263;-73
2023/05/20 09:19:22;;;;;;;;;;;;;;;21.69;90.47;101547.25;109800;1241;62704;-73
2023/05/20 09:21:54;;;;;;;14.00;11.60;;;;;;;21.83;90.00;101547.54;109788;1242;60207;-73
2023/05/20 09:24:24;;;;;;;15.00;10.80;;;;;;;22.08;89.60;101549.77;109800;1241;61015;-73
2023/05/20 09:26:53;;;;;;;16.20;11.70;;;;;;;22.21;88.56;101549.15;109479;1241;74090;-73
2023/05/20 09:29:22;;;;;;;14.00;11.60;;;;;;;22.11;89.37;101544.08;109811;1241;63556;-73
2023/05/20 09:31:52;;;;;;;13.80;11.10;;;;;;;22.32;88.56;101538.08;109683;1241;70474;-74
2023/05/20 09:34:21;;;;;;;12.90;11.00;;;;;;;22.30;88.79;101533.25;109684;1241;74815;-75
2023/05/20 09:36:50;;;;;;;13.40;11.10;;;;;;;22.57;88.34;101526.83;109818;1241;59872;-75
2023/05/20 09:39:26;;;;;;;13.90;11.50;;;;;;;22.68;87.81;101527.83;109875;1241;61087;-75
2023/05/20 09:42:01;;;;;;;14.30;11.00;;;;;;;22.93;86.50;101522.95;109741;1240;73950;-75
2023/05/20 09:44:34;;;;;;;13.50;10.60;;;;;;;23.10;84.51;101524.22;109645;1240;62115;-75
2023/05/20 09:47:06;;;;;;;12.60;10.10;;;;;;;23.22;82.53;101523.73;109520;1241;69778;-74
2023/05/20 09:49:36;;;;;;;15.90;11.10;;;;;;;23.20;82.47;101519.77;109772;1244;63749;-75
2023/05/20 09:52:06;;;;;;;14.90;10.60;;;;;;;23.40;81.85;101511.38;109739;1241;60396;-74
2023/05/20 09:54:36;;;;;;;12.80;9.90;;;;;;;23.61;81.68;101513.50;109747;1241;57635;-74
2023/05/20 09:57:06;;;;;;;14.00;11.20;;;;;;;23.63;80.06;101505.25;109720;1241;63788;-75
2023/05/20 09:59:40;;;;;;;13.90;9.30;;;;;;;23.64;80.81;101498.52;109634;1241;72154;-75
2023/05/20 10:02:10;;;;;;;11.00;9.70;;;;;;;23.85;79.86;101499.84;109721;1241;71090;-74
2023/05/20 10:04:48;;;;;;;13.40;10.50;;;;;;;23.94;79.59;101491.91;109510;1241;74601;-75
2023/05/20 10:07:26;;;;;;;14.70;10.50;;;;;;;24.05;78.11;101486.75;109690;1244;58011;-75
2023/05/20 10:10:48;;;;;;;13.80;10.70;;;;;;;23.90;78.27;101477.16;109743;1241;57703;-75
2023/05/20 10:13:25;;;;;;;12.10;9.60;;;;;;;24.24;77.94;101467.64;109627;1242;62947;-74
2023/05/20 10:15:56;;;;;;;11.90;9.90;;;;;;;24.27;77.22;101472.26;109583;1241;72512;-76
2023/05/20 10:18:38;;;;;;;13.90;9.80;;;;;;;24.65;76.67;101469.64;109526;1241;70801;-75
2023/05/20 10:21:21;;;;;;;13.40;9.20;;;;;;;24.91;75.60;101465.55;109504;1241;63791;-75
2023/05/20 10:23:52;;;;;;;11.20;9.70;;;;;;;25.25;67.29;101465.80;109528;1241;57153;-75
2023/05/20 10:26:21;;;;;;;12.80;11.30;;;;;;;25.33;61.06;101463.01;109563;1241;57255;-76
2023/05/20 10:28:50;;;;;;;10.70;9.70;;;;;;;25.53;60.84;101459.84;109509;1241;62980;-75
2023/05/20 10:31:24;;;;;;;10.10;9.10;;;;;;;25.93;59.87;101452.32;109430;1242;69978;-75
2023/05/20 10:33:53;;;;;;;11.80;9.50;;;;;;;26.38;58.64;101448.90;109555;1243;62049;-74
2023/05/20 10:36:25;;;;;;;15.80;9.60;;;;;;;26.32;58.71;101446.64;109518;1242;63747;-73
2023/05/20 10:38:55;;;;;;;;;;;;;;;26.57;57.63;101447.62;109335;1245;57259;-72
2023/05/20 10:41:28;;;;;;;12.50;9.40;;;;;;;26.80;57.68;101451.71;109487;1241;57161;-73
2023/05/20 10:44:05;;;;;;;12.50;9.40;;;;;;;26.55;56.85;101444.41;109310;1241;64814;-73
2023/05/20 10:46:34;;;;;;;11.80;9.60;;;;;;;26.83;57.47;101441.55;109555;1241;70776;-73
2023/05/20 10:49:23;;;;;;;11.10;9.30;;;;;;;27.21;56.84;101430.75;109560;1244;60376;-70
2023/05/20 10:51:55;;;;;;;14.80;9.20;;;;;;;27.65;55.42;101425.87;109641;1242;63293;-72
2023/05/20 10:54:24;;;;;;;10.40;9.30;;;;;;;27.43;54.82;101424.81;109581;1244;60652;-72
2023/05/20 10:56:53;;;;;;;11.60;9.10;;;;;;;27.49;54.32;101421.15;109598;1241;61465;-72
2023/05/20 10:59:22;;;;;;;10.90;8.00;;;;;;;27.79;52.16;101419.23;109628;1241;64672;-72
2023/05/20 11:01:52;;;;;;;9.80;8.50;;;;;;;27.72;49.65;101412.46;109604;1241;62025;-73
2023/05/20 11:04:21;;;;;;;11.00;8.20;;;;;;;27.83;48.91;101408.13;109589;1241;70460;-71
2023/05/20 11:06:52;;;;;;;12.50;8.00;;;;;;;27.96;47.89;101401.59;109453;1244;63864;-71
2023/05/20 11:09:22;;;;;;;12.60;7.60;;;;;;;28.76;46.84;101398.44;109363;1245;61216;-72
2023/05/20 11:11:53;;;;;;;11.30;8.40;;;;;;;29.10;46.11;101395.83;109489;1241;57231;-72